createdAt,value
2023-02-19T00:06:26.390Z,22.3
2023-02-19T00:16:29.614Z,22.5
2023-02-19T00:26:34.121Z,22.1
2023-02-19T00:36:38.051Z,22.6
2023-02-19T00:46:41.605Z,22.4
2023-02-19T00:56:46.024Z,22.4
2023-02-19T01:06:49.883Z,22.2
2023-02-19T01:16:53.289Z,22.3
2023-02-19T01:26:57.864Z,22.3
2023-02-19T01:37:01.768Z,22.2
2023-02-19T01:47:05.081Z,22.2
2023-02-19T01:57:10.021Z,22.2
2023-02-19T02:07:14.016Z,22.6
2023-02-19T02:17:17.380Z,22.1
2023-02-19T02:27:21.874Z,22.4
2023-02-19T02:37:25.841Z,21.8
2023-02-19T02:47:29.103Z,21.8
2023-02-19T02:57:33.637Z,21.9
2023-02-19T03:05:09.419Z,22.4
2023-02-19T03:15:13.171Z,22.2
2023-02-19T03:25:17.578Z,22.2
2023-02-19T03:35:21.192Z,22.2
2023-02-19T03:45:25.220Z,22.1
2023-02-19T03:55:29.293Z,22.2
2023-02-19T04:05:34.471Z,21.9
2023-02-19T04:15:39.766Z,22.1
2023-02-19T04:25:45.096Z,22.3
2023-02-19T04:35:50.537Z,21.9
2023-02-19T04:45:55.715Z,22.1
2023-02-19T04:56:01.152Z,22.2
2023-02-19T05:06:05.068Z,22.3
2023-02-19T05:16:09.179Z,22
2023-02-19T05:26:13.250Z,22.3
2023-02-19T05:36:17.532Z,22.4
2023-02-19T05:46:21.700Z,22.3
2023-02-19T05:56:26.027Z,25.6
2023-02-19T06:06:35.830Z,31
2023-02-19T06:16:47.805Z,31.6
2023-02-19T06:27:00.268Z,31.9
2023-02-19T06:37:12.882Z,32.7
2023-02-19T06:47:25.647Z,32.2
2023-02-19T06:57:38.928Z,33
2023-02-19T07:07:48.681Z,30.4
2023-02-19T07:13:10.277Z,33.3
2023-02-19T07:23:24.899Z,33.7
2023-02-19T07:33:38.085Z,32.9
2023-02-19T07:43:51.025Z,33.3
2023-02-19T07:54:07.399Z,33
2023-02-19T08:04:23.180Z,33.8
2023-02-19T08:14:39.650Z,33.3
2023-02-19T08:24:54.645Z,34.4
2023-02-19T09:05:14.982Z,33.4
2023-02-19T09:15:28.098Z,33.9
2023-02-19T09:25:42.980Z,35.9
2023-02-19T09:36:01.571Z,35.7
2023-02-19T09:46:22.589Z,35.6
2023-02-19T09:56:42.846Z,35.3
2023-02-19T10:06:59.712Z,34.5
2023-02-19T10:17:13.495Z,30.9
2023-02-19T10:27:23.147Z,33
2023-02-19T10:37:36.806Z,31.9
2023-02-19T10:47:50.692Z,31.3
2023-02-19T10:58:03.509Z,29.7
2023-02-19T11:08:13.453Z,30.6
2023-02-19T11:18:23.773Z,34.8
2023-02-19T11:28:32.499Z,30
2023-02-19T11:38:42.936Z,34.6
2023-02-19T11:48:51.082Z,27
2023-02-19T11:59:01.122Z,34.4
2023-02-19T12:09:10.691Z,24.1
2023-02-19T12:19:17.240Z,29.4
2023-02-19T12:29:22.497Z,26.4
2023-02-19T12:39:26.392Z,24.1
2023-02-19T12:49:29.889Z,23.8
2023-02-19T12:59:33.355Z,23.8
2023-02-19T13:09:36.175Z,23.6
2023-02-19T13:19:40.239Z,23.8
2023-02-19T13:29:43.422Z,23.9
2023-02-19T13:39:46.622Z,24.3
2023-02-19T13:49:49.902Z,23.8
2023-02-19T13:59:53.029Z,23.9
2023-02-19T14:09:56.024Z,23.9
2023-02-19T14:19:57.652Z,19.2
2023-02-19T14:29:57.460Z,24.4
2023-02-19T14:39:59.128Z,18.8
2023-02-19T14:50:00.748Z,23.7
2023-02-19T15:05:07.140Z,23.9
2023-02-19T15:15:09.793Z,23.4
2023-02-19T15:25:10.442Z,18.8
2023-02-19T15:35:10.954Z,18.4
2023-02-19T15:45:11.578Z,24.2
2023-02-19T15:55:12.696Z,23.7
2023-02-19T16:05:15.672Z,23.3
2023-02-19T16:15:15.338Z,19.6
2023-02-19T16:25:16.124Z,19.4
2023-02-19T16:35:17.021Z,19.9
2023-02-19T21:05:08.587Z,23.6
2023-02-19T21:15:07.515Z,20.6
2023-02-19T21:25:07.653Z,19.6
2023-02-19T21:35:06.999Z,23.9
2023-02-19T21:45:06.454Z,19.7
2023-02-19T21:55:05.830Z,19.9
2023-02-19T22:05:05.828Z,19.6
2023-02-19T22:15:06.680Z,19.9
2023-02-19T22:25:07.586Z,19.8
2023-02-19T22:35:08.519Z,19.7
2023-02-19T22:45:08.503Z,19.8
2023-02-19T22:55:09.827Z,19.5
2023-02-19T23:05:09.960Z,19.5
2023-02-19T23:15:09.090Z,19.6
2023-02-19T23:25:09.022Z,19.9
2023-02-19T23:35:08.939Z,19.3
2023-02-19T23:45:08.263Z,23.4
2023-02-19T23:55:08.723Z,19.4
